createdAt,value
2022-12-19T00:01:22.399Z,1.07
2022-12-19T00:03:49.732Z,1.15
2022-12-19T00:06:16.850Z,1.27
2022-12-19T00:08:44.392Z,1.05
2022-12-19T00:11:11.338Z,1.35
2022-12-19T00:13:41.138Z,1.03
2022-12-19T00:16:09.007Z,1.25
2022-12-19T00:18:35.373Z,1.40
2022-12-19T00:21:03.464Z,1.45
2022-12-19T00:23:31.339Z,2.40
2022-12-19T00:28:23.926Z,1.50
2022-12-19T00:30:50.342Z,1.63
2022-12-19T00:33:19.689Z,1.88
2022-12-19T00:35:46.065Z,1.75
2022-12-19T00:38:12.390Z,1.48
2022-12-19T00:40:38.734Z,1.40
2022-12-19T00:43:05.084Z,0.80
2022-12-19T00:45:31.476Z,1.50
2022-12-19T00:47:57.816Z,1.80
2022-12-19T00:50:24.141Z,1.42
2022-12-19T00:52:50.554Z,1.33
2022-12-19T00:55:19.454Z,2.40
2022-12-19T00:57:46.473Z,2.30
2022-12-19T01:00:13.140Z,2.95
2022-12-19T01:02:39.631Z,2.60
2022-12-19T01:05:06.241Z,2.75
2022-12-19T01:07:32.678Z,2.22
2022-12-19T01:09:59.081Z,1.30
2022-12-19T01:12:44.101Z,1.40
2022-12-19T01:15:10.661Z,1.60
2022-12-19T01:17:43.596Z,1.92
2022-12-19T01:20:10.598Z,2.00
2022-12-19T01:22:36.980Z,2.22
2022-12-19T01:25:03.464Z,2.72
2022-12-19T01:27:29.837Z,2.17
2022-12-19T01:29:56.164Z,2.30
2022-12-19T01:32:23.393Z,2.20
2022-12-19T01:34:49.778Z,2.03
2022-12-19T01:37:19.414Z,2.33
2022-12-19T01:39:46.356Z,2.13
2022-12-19T01:42:17.687Z,2.20
2022-12-19T01:45:02.827Z,1.98
2022-12-19T01:47:29.539Z,1.98
2022-12-19T01:49:56.455Z,1.75
2022-12-19T01:52:23.897Z,2.53
2022-12-19T01:54:50.461Z,1.85
2022-12-19T01:57:17.611Z,2.17
2022-12-19T01:59:45.869Z,1.73
2022-12-19T02:02:25.366Z,2.13
2022-12-19T02:04:51.782Z,2.00
2022-12-19T02:07:19.600Z,2.60
2022-12-19T02:12:13.442Z,2.75
2022-12-19T02:14:40.275Z,2.97
2022-12-19T02:17:12.341Z,3.10
2022-12-19T02:23:00.659Z,3.17
2022-12-19T02:25:49.274Z,3.97
2022-12-19T02:28:32.734Z,4.63
2022-12-19T02:31:17.414Z,4.72
2022-12-19T02:33:56.351Z,4.80
2022-12-19T02:36:27.449Z,5.88
2022-12-19T02:39:04.533Z,6.78
2022-12-19T02:41:43.218Z,5.60
2022-12-19T02:44:14.004Z,6.38
2022-12-19T02:46:41.536Z,6.68
2022-12-19T02:49:10.682Z,6.03
2022-12-19T02:51:37.325Z,6.35
2022-12-19T02:54:04.061Z,6.30
2022-12-19T02:56:49.721Z,5.97
2022-12-19T02:59:34.731Z,6.53
2022-12-19T03:02:01.267Z,5.35
2022-12-19T03:04:39.422Z,4.82
2022-12-19T03:07:38.256Z,3.92
2022-12-19T03:10:24.868Z,3.92
2022-12-19T03:13:02.967Z,3.20
2022-12-19T03:15:29.494Z,2.80
2022-12-19T03:17:57.593Z,2.42
2022-12-19T03:20:30.308Z,2.17
2022-12-19T03:22:56.692Z,1.80
2022-12-19T03:25:24.225Z,1.85
2022-12-19T03:27:52.047Z,1.65
2022-12-19T03:32:46.851Z,1.60
2022-12-19T03:35:13.167Z,1.67
2022-12-19T03:37:40.865Z,2.38
2022-12-19T03:40:10.000Z,1.40
2022-12-19T03:42:56.474Z,1.60
2022-12-19T03:45:26.374Z,1.90
2022-12-19T03:47:57.224Z,2.28
2022-12-19T03:50:24.865Z,2.00
2022-12-19T03:55:29.261Z,2.35
2022-12-19T03:58:02.113Z,2.85
2022-12-19T04:00:29.992Z,2.42
2022-12-19T04:05:24.359Z,2.38
2022-12-19T04:07:52.373Z,2.20
2022-12-19T04:10:20.678Z,2.40
2022-12-19T04:13:01.256Z,2.67
2022-12-19T04:15:34.825Z,2.85
2022-12-19T04:18:04.519Z,2.08
2022-12-19T04:20:31.891Z,2.70
2022-12-19T04:23:00.017Z,1.92
2022-12-19T04:25:29.736Z,2.10
2022-12-19T04:27:58.793Z,1.50
2022-12-19T04:30:26.151Z,2.00
2022-12-19T04:32:52.518Z,1.58
2022-12-19T04:35:18.846Z,1.63
2022-12-19T04:37:45.368Z,1.50
2022-12-19T04:40:12.055Z,1.83
2022-12-19T04:42:38.438Z,2.10
2022-12-19T04:45:05.631Z,1.83
2022-12-19T04:47:32.561Z,2.13
2022-12-19T04:49:58.902Z,1.70
2022-12-19T04:52:25.269Z,1.73
2022-12-19T04:54:51.604Z,2.00
2022-12-19T04:57:17.996Z,2.20
2022-12-19T04:59:44.509Z,2.20
2022-12-19T05:02:10.929Z,2.50
2022-12-19T05:04:37.331Z,2.45
2022-12-19T05:07:03.805Z,2.70
2022-12-19T05:09:30.184Z,3.42
2022-12-19T05:11:56.513Z,3.30
2022-12-19T05:14:23.027Z,3.85
2022-12-19T05:16:49.421Z,3.70
2022-12-19T05:19:15.778Z,3.63
2022-12-19T05:21:42.348Z,3.88
2022-12-19T05:24:08.690Z,3.47
2022-12-19T05:26:35.022Z,4.47
2022-12-19T05:29:01.351Z,3.28
2022-12-19T05:31:27.749Z,3.60
2022-12-19T05:33:54.393Z,3.83
2022-12-19T05:36:20.767Z,3.33
2022-12-19T05:38:47.161Z,4.15
2022-12-19T05:41:14.764Z,3.53
2022-12-19T05:43:41.323Z,3.42
2022-12-19T05:46:08.016Z,4.40
2022-12-19T05:48:35.255Z,3.63
2022-12-19T05:51:01.922Z,3.90
2022-12-19T05:53:28.291Z,3.95
2022-12-19T05:56:11.450Z,3.67
2022-12-19T05:58:38.235Z,3.65
2022-12-19T06:01:12.206Z,3.22
2022-12-19T06:03:38.742Z,4.38
2022-12-19T06:06:06.674Z,3.75
2022-12-19T06:11:03.698Z,3.05
2022-12-19T06:13:30.393Z,2.65
2022-12-19T06:16:00.124Z,3.25
2022-12-19T06:18:27.018Z,3.00
2022-12-19T06:21:12.858Z,2.50
2022-12-19T06:23:39.195Z,2.72
2022-12-19T06:26:06.334Z,3.60
2022-12-19T06:28:33.133Z,3.03
2022-12-19T06:31:00.237Z,3.30
2022-12-19T06:33:26.891Z,3.28
2022-12-19T06:36:00.119Z,2.80
2022-12-19T06:38:27.293Z,2.63
2022-12-19T06:41:12.148Z,3.47
2022-12-19T06:43:38.556Z,3.20
2022-12-19T06:46:05.601Z,3.20
2022-12-19T06:48:32.005Z,4.53
2022-12-19T06:50:58.542Z,3.78
2022-12-19T06:53:25.055Z,3.53
2022-12-19T06:55:53.158Z,3.85
2022-12-19T06:58:24.122Z,3.67
2022-12-19T07:00:50.819Z,3.20
2022-12-19T07:03:22.826Z,3.65
2022-12-19T07:05:49.145Z,3.30
2022-12-19T07:08:15.551Z,4.10
2022-12-19T07:10:41.898Z,3.88
2022-12-19T07:13:08.280Z,3.70
2022-12-19T07:15:34.944Z,3.42
2022-12-19T07:18:02.238Z,3.90
2022-12-19T07:20:28.997Z,3.55
2022-12-19T07:22:55.344Z,3.53
2022-12-19T07:25:21.785Z,3.65
2022-12-19T07:27:48.179Z,4.22
2022-12-19T07:30:14.616Z,3.70
2022-12-19T07:32:41.031Z,3.88
2022-12-19T07:35:07.585Z,3.97
2022-12-19T07:37:33.917Z,3.25
2022-12-19T07:40:00.250Z,3.35
2022-12-19T07:42:30.872Z,3.25
2022-12-19T07:44:58.905Z,3.70
2022-12-19T07:47:27.556Z,3.58
2022-12-19T07:49:54.008Z,3.22
2022-12-19T07:52:20.316Z,3.25
2022-12-19T07:54:46.679Z,2.72
2022-12-19T07:57:13.049Z,3.97
2022-12-19T07:59:39.681Z,3.25
2022-12-19T08:02:06.380Z,3.83
2022-12-19T08:04:34.286Z,4.30
2022-12-19T08:07:02.259Z,4.65
2022-12-19T08:09:28.922Z,5.22
2022-12-19T08:11:55.571Z,5.20
2022-12-19T08:14:21.968Z,5.25
2022-12-19T08:17:19.308Z,4.15
2022-12-19T08:19:34.652Z,4.18
2022-12-19T08:22:00.989Z,4.18
2022-12-19T08:24:27.304Z,4.38
2022-12-19T08:26:53.693Z,3.60
2022-12-19T08:29:20.243Z,3.17
2022-12-19T08:31:46.735Z,2.55
2022-12-19T08:34:13.096Z,2.85
2022-12-19T08:36:39.543Z,3.45
2022-12-19T08:39:06.143Z,3.20
2022-12-19T08:41:32.464Z,3.40
2022-12-19T08:43:58.899Z,3.15
2022-12-19T08:46:26.433Z,3.28
2022-12-19T08:48:53.027Z,2.85
2022-12-19T08:51:19.919Z,2.13
2022-12-19T08:53:46.482Z,2.22
2022-12-19T08:56:16.961Z,2.17
2022-12-19T08:58:44.150Z,2.38
2022-12-19T09:01:13.450Z,1.60
2022-12-19T09:04:11.716Z,1.77
2022-12-19T09:06:26.856Z,1.93
2022-12-19T09:08:53.506Z,1.55
2022-12-19T09:11:26.491Z,1.45
2022-12-19T09:13:55.123Z,1.45
2022-12-19T09:16:22.513Z,1.42
2022-12-19T09:18:49.773Z,1.55
2022-12-19T09:21:16.843Z,1.08
2022-12-19T09:23:43.698Z,1.10
2022-12-19T09:26:12.726Z,0.80
2022-12-19T09:28:39.872Z,1.00
2022-12-19T09:31:13.907Z,1.25
2022-12-19T09:33:43.714Z,1.92
2022-12-19T09:36:28.548Z,1.85
2022-12-19T09:38:55.989Z,2.00
2022-12-19T09:41:37.503Z,1.85
2022-12-19T09:44:03.837Z,1.90
2022-12-19T09:46:36.291Z,2.08
2022-12-19T09:49:10.774Z,2.42
2022-12-19T09:51:55.899Z,3.05
2022-12-19T09:54:28.482Z,3.25
2022-12-19T09:56:58.397Z,2.60
2022-12-19T09:59:41.508Z,3.00
2022-12-19T10:04:42.551Z,2.45
2022-12-19T10:07:30.583Z,2.55
2022-12-19T10:12:04.099Z,3.47
2022-12-19T10:12:57.008Z,4.03
2022-12-19T10:15:25.994Z,3.92
2022-12-19T10:17:52.320Z,4.22
2022-12-19T10:20:29.757Z,3.17
2022-12-19T10:23:05.253Z,3.80
2022-12-19T10:25:40.929Z,2.60
2022-12-19T10:28:37.536Z,3.50
2022-12-19T10:31:22.120Z,3.13
2022-12-19T10:33:54.799Z,2.97
2022-12-19T10:36:31.855Z,3.47
2022-12-19T10:41:44.088Z,3.25
2022-12-19T10:44:11.057Z,3.55
2022-12-19T10:46:38.966Z,4.55
2022-12-19T10:49:11.585Z,4.43
2022-12-19T10:51:37.963Z,3.38
2022-12-19T10:54:04.378Z,3.40
2022-12-19T10:56:37.171Z,4.03
2022-12-19T10:59:04.827Z,4.15
2022-12-19T11:01:38.963Z,3.28
2022-12-19T11:04:20.778Z,3.47
2022-12-19T11:06:47.950Z,3.90
2022-12-19T11:09:18.148Z,3.63
2022-12-19T11:14:36.485Z,3.30
2022-12-19T11:19:28.042Z,3.42
2022-12-19T11:29:16.460Z,3.38
2022-12-19T11:29:33.695Z,4.22
2022-12-19T11:30:46.601Z,3.15
2022-12-19T11:30:48.853Z,3.07
2022-12-19T11:32:32.200Z,3.10
2022-12-19T11:34:16.185Z,2.38
2022-12-19T11:37:01.687Z,2.65
2022-12-19T11:39:41.677Z,2.88
2022-12-19T11:42:08.010Z,2.70
2022-12-19T11:44:36.199Z,2.55
2022-12-19T11:47:32.468Z,3.08
2022-12-19T11:50:01.590Z,2.55
2022-12-19T11:55:38.392Z,3.00
2022-12-19T11:58:04.820Z,2.42
2022-12-19T12:00:31.446Z,2.67
2022-12-19T12:03:06.968Z,2.22
2022-12-19T12:05:46.482Z,2.20
2022-12-19T12:10:51.130Z,1.75
2022-12-19T12:20:12.777Z,2.47
2022-12-19T12:22:51.268Z,1.92
2022-12-19T12:30:06.319Z,2.15
2022-12-19T12:31:13.348Z,2.33
2022-12-19T12:31:27.954Z,1.55
2022-12-19T12:31:52.738Z,2.60
2022-12-19T12:31:53.475Z,2.10
2022-12-19T12:35:46.393Z,2.95
2022-12-19T12:40:34.920Z,2.42
2022-12-19T12:43:01.235Z,3.28
2022-12-19T12:45:35.026Z,3.20
2022-12-19T12:48:01.442Z,3.08
2022-12-19T12:50:28.294Z,2.60
2022-12-19T12:52:59.621Z,2.38
2022-12-19T12:55:28.964Z,2.25
2022-12-19T12:57:55.647Z,2.42
2022-12-19T13:00:29.021Z,2.42
2022-12-19T13:03:07.492Z,2.00
2022-12-19T13:05:46.188Z,2.47
2022-12-19T13:08:31.300Z,2.45
2022-12-19T13:11:02.251Z,3.03
2022-12-19T13:13:48.348Z,2.97
2022-12-19T13:16:34.978Z,4.30
2022-12-19T13:19:19.568Z,3.73
2022-12-19T13:22:04.169Z,3.97
2022-12-19T13:24:40.027Z,4.80
2022-12-19T13:27:18.389Z,5.20
2022-12-19T13:29:54.214Z,4.05
2022-12-19T13:32:21.503Z,3.83
2022-12-19T13:34:57.495Z,3.42
2022-12-19T13:39:59.967Z,4.38
2022-12-19T13:40:32.827Z,3.40
2022-12-19T13:43:18.228Z,4.70
2022-12-19T13:45:49.666Z,3.88
2022-12-19T13:48:20.329Z,4.28
2022-12-19T13:50:48.023Z,4.05
2022-12-19T13:53:17.102Z,3.28
2022-12-19T13:55:43.882Z,2.70
2022-12-19T13:58:21.910Z,3.58
2022-12-19T14:00:58.621Z,2.88
2022-12-19T14:03:37.095Z,3.30
2022-12-19T14:06:29.600Z,3.20
2022-12-19T14:09:16.340Z,3.13
2022-12-19T14:13:49.012Z,3.33
2022-12-19T14:15:06.362Z,3.88
2022-12-19T14:17:36.422Z,3.85
2022-12-19T14:20:09.933Z,3.85
2022-12-19T14:22:57.816Z,3.72
2022-12-19T14:28:14.851Z,4.68
2022-12-19T14:28:30.064Z,3.95
2022-12-19T14:31:01.263Z,4.28
2022-12-19T14:33:46.943Z,3.65
2022-12-19T14:36:26.303Z,4.28
2022-12-19T14:39:27.870Z,3.92
2022-12-19T14:42:02.480Z,3.58
2022-12-19T14:52:51.264Z,2.80
2022-12-19T14:54:18.064Z,2.08
2022-12-19T14:54:29.541Z,3.60
2022-12-19T14:54:31.034Z,2.80
2022-12-19T14:58:57.280Z,2.90
2022-12-19T15:01:25.904Z,3.20
2022-12-19T15:04:52.414Z,3.25
2022-12-19T15:07:06.861Z,3.45
2022-12-19T15:11:09.292Z,3.33
2022-12-19T15:14:53.360Z,2.97
2022-12-19T15:15:40.922Z,3.65
2022-12-19T15:18:24.190Z,3.25
2022-12-19T15:20:51.101Z,3.60
2022-12-19T15:23:22.041Z,4.15
2022-12-19T15:26:06.533Z,4.70
2022-12-19T15:28:36.302Z,5.07
2022-12-19T15:31:05.734Z,4.47
2022-12-19T15:33:32.134Z,5.60
2022-12-19T15:35:58.511Z,4.63
2022-12-19T15:38:24.874Z,5.45
2022-12-19T15:40:51.259Z,5.68
2022-12-19T15:44:01.253Z,5.82
2022-12-19T15:46:05.848Z,5.93
2022-12-19T15:48:34.292Z,5.90
2022-12-19T15:51:00.650Z,5.68
2022-12-19T15:53:39.975Z,6.90
2022-12-19T15:56:14.819Z,5.88
2022-12-19T15:58:41.183Z,4.97
2022-12-19T16:01:07.821Z,4.10
2022-12-19T16:03:34.677Z,4.13
2022-12-19T16:06:01.133Z,4.50
2022-12-19T16:08:28.208Z,4.57
2022-12-19T16:11:01.513Z,4.13
2022-12-19T16:13:34.647Z,3.70
2022-12-19T16:16:01.429Z,3.38
2022-12-19T16:18:27.783Z,3.00
2022-12-19T16:20:54.135Z,4.18
2022-12-19T16:23:22.352Z,4.40
2022-12-19T16:25:50.694Z,4.03
2022-12-19T16:28:19.452Z,3.60
2022-12-19T16:30:46.026Z,4.03
2022-12-19T16:33:20.468Z,4.05
2022-12-19T16:36:04.517Z,3.05
2022-12-19T16:38:33.244Z,3.60
2022-12-19T16:40:59.682Z,2.90
2022-12-19T16:43:29.372Z,4.00
2022-12-19T16:46:00.814Z,3.45
2022-12-19T16:48:29.776Z,2.85
2022-12-19T16:50:57.020Z,3.90
2022-12-19T16:53:23.407Z,3.65
2022-12-19T16:55:50.411Z,2.80
2022-12-19T16:58:20.962Z,3.17
2022-12-19T17:00:47.741Z,3.20
2022-12-19T17:03:29.292Z,3.25
2022-12-19T17:05:55.770Z,2.63
2022-12-19T17:08:22.800Z,3.53
2022-12-19T17:10:49.287Z,3.20
2022-12-19T17:13:17.514Z,3.40
2022-12-19T17:15:44.367Z,3.63
2022-12-19T17:18:12.454Z,3.60
2022-12-19T17:20:39.717Z,3.15
2022-12-19T17:23:12.504Z,3.70
2022-12-19T17:25:38.833Z,3.40
2022-12-19T17:28:05.208Z,4.15
2022-12-19T17:30:31.606Z,3.70
2022-12-19T17:32:57.993Z,3.28
2022-12-19T17:35:28.224Z,2.22
2022-12-19T17:37:55.554Z,2.50
2022-12-19T17:40:23.794Z,2.10
2022-12-19T17:42:50.148Z,1.70
2022-12-19T17:45:17.193Z,1.20
2022-12-19T17:47:44.808Z,0.95
2022-12-19T17:50:20.315Z,0.88
2022-12-19T17:52:47.045Z,1.00
2022-12-19T17:55:15.338Z,1.05
2022-12-19T17:57:41.704Z,0.82
2022-12-19T18:00:08.334Z,1.10
2022-12-19T18:02:36.239Z,1.30
2022-12-19T18:05:02.906Z,1.30
2022-12-19T18:07:29.289Z,1.00
2022-12-19T18:09:56.118Z,1.50
2022-12-19T18:12:22.572Z,1.00
2022-12-19T18:14:48.887Z,1.02
2022-12-19T18:17:25.336Z,0.60
2022-12-19T18:19:52.162Z,0.80
2022-12-19T18:22:18.558Z,0.85
2022-12-19T18:24:44.895Z,0.57
2022-12-19T18:27:11.262Z,1.00
2022-12-19T18:29:37.655Z,1.23
2022-12-19T18:32:04.447Z,1.63
2022-12-19T18:34:31.274Z,1.70
2022-12-19T18:36:57.712Z,1.57
2022-12-19T18:39:28.203Z,1.20
2022-12-19T18:41:54.840Z,1.40
2022-12-19T18:44:22.911Z,1.20
2022-12-19T18:46:49.708Z,0.90
2022-12-19T18:49:16.965Z,0.80
2022-12-19T18:51:44.788Z,0.93
2022-12-19T18:54:15.373Z,1.05
2022-12-19T18:56:41.783Z,1.00
2022-12-19T18:59:08.222Z,1.73
2022-12-19T19:01:36.523Z,1.90
2022-12-19T19:04:03.105Z,2.30
2022-12-19T19:06:35.744Z,2.38
2022-12-19T19:09:04.156Z,2.05
2022-12-19T19:11:30.515Z,1.50
2022-12-19T19:13:57.023Z,1.05
2022-12-19T19:16:24.790Z,1.38
2022-12-19T19:21:17.986Z,1.67
2022-12-19T19:23:46.926Z,1.55
2022-12-19T19:26:13.307Z,1.70
2022-12-19T19:28:39.762Z,1.80
2022-12-19T19:31:07.388Z,2.28
2022-12-19T19:33:34.960Z,2.35
2022-12-19T19:36:11.035Z,3.00
2022-12-19T19:38:38.532Z,2.92
2022-12-19T19:41:04.963Z,2.65
2022-12-19T19:43:35.538Z,2.85
2022-12-19T19:46:02.347Z,2.70
2022-12-19T19:48:28.738Z,3.05
2022-12-19T19:50:55.149Z,2.35
2022-12-19T19:53:21.796Z,1.85
2022-12-19T19:55:55.947Z,2.25
2022-12-19T19:58:22.270Z,2.00
2022-12-19T20:00:48.739Z,2.35
2022-12-19T20:03:22.255Z,2.50
2022-12-19T20:05:49.999Z,1.60
2022-12-19T20:08:16.647Z,1.63
2022-12-19T20:10:43.008Z,0.90
2022-12-19T20:13:11.162Z,1.10
2022-12-19T20:15:37.706Z,0.80
2022-12-19T20:18:04.233Z,0.82
2022-12-19T20:20:33.092Z,0.55
2022-12-19T20:22:59.463Z,0.90
2022-12-19T20:25:25.791Z,1.10
2022-12-19T20:27:52.161Z,1.15
2022-12-19T20:30:18.649Z,1.30
2022-12-19T20:32:44.998Z,1.55
2022-12-19T20:35:14.743Z,1.20
2022-12-19T20:37:41.659Z,1.63
2022-12-19T20:40:08.454Z,1.00
2022-12-19T20:42:34.807Z,1.08
2022-12-19T20:45:01.148Z,0.68
2022-12-19T20:47:27.555Z,0.80
2022-12-19T20:49:53.935Z,1.35
2022-12-19T20:52:20.374Z,1.00
2022-12-19T20:54:46.707Z,0.95
2022-12-19T20:57:13.093Z,1.10
2022-12-19T20:59:39.707Z,1.17
2022-12-19T21:02:06.803Z,1.88
2022-12-19T21:04:33.542Z,1.35
2022-12-19T21:06:59.975Z,1.55
2022-12-19T21:09:26.399Z,1.55
2022-12-19T21:11:53.193Z,2.20
2022-12-19T21:14:19.671Z,1.20
2022-12-19T21:16:46.359Z,1.25
2022-12-19T21:19:12.785Z,1.55
2022-12-19T21:21:39.163Z,1.88
2022-12-19T21:24:05.715Z,2.13
2022-12-19T21:26:32.366Z,2.30
2022-12-19T21:28:59.351Z,1.50
2022-12-19T21:31:27.765Z,1.47
2022-12-19T21:33:54.857Z,1.20
2022-12-19T21:36:22.662Z,1.70
2022-12-19T21:41:19.406Z,1.25
2022-12-19T21:43:51.590Z,1.65
2022-12-19T21:46:18.410Z,1.42
2022-12-19T21:48:46.205Z,2.00
2022-12-19T21:51:13.387Z,2.00
2022-12-19T21:53:39.858Z,2.15
2022-12-19T21:56:07.857Z,2.00
2022-12-19T21:58:34.643Z,2.45
2022-12-19T22:01:08.437Z,2.67
2022-12-19T22:03:35.149Z,3.05
2022-12-19T22:06:01.617Z,2.22
2022-12-19T22:08:28.039Z,2.80
2022-12-19T22:10:54.407Z,3.22
2022-12-19T22:13:20.830Z,3.38
2022-12-19T22:15:47.157Z,2.47
2022-12-19T22:18:13.529Z,1.65
2022-12-19T22:20:43.359Z,1.38
2022-12-19T22:23:13.262Z,1.73
2022-12-19T22:25:40.081Z,1.70
2022-12-19T22:28:06.486Z,1.85
2022-12-19T22:30:34.524Z,2.13
2022-12-19T22:33:00.854Z,2.40
2022-12-19T22:35:27.197Z,1.52
2022-12-19T22:37:54.520Z,2.42
2022-12-19T22:40:21.011Z,2.60
2022-12-19T22:42:47.372Z,2.28
2022-12-19T22:45:13.765Z,1.73
2022-12-19T22:47:41.143Z,1.70
2022-12-19T22:50:07.948Z,1.75
2022-12-19T22:52:34.338Z,1.45
2022-12-19T22:55:00.657Z,1.52
2022-12-19T22:57:26.974Z,1.85
2022-12-19T22:59:53.318Z,1.83
2022-12-19T23:02:20.103Z,2.35
2022-12-19T23:04:46.556Z,1.57
2022-12-19T23:07:12.899Z,1.25
2022-12-19T23:09:39.470Z,1.65
2022-12-19T23:12:05.943Z,1.13
2022-12-19T23:14:32.284Z,1.02
2022-12-19T23:16:58.688Z,1.42
2022-12-19T23:19:25.058Z,1.65
2022-12-19T23:21:51.413Z,2.13
2022-12-19T23:24:17.722Z,2.05
2022-12-19T23:26:44.532Z,2.03
2022-12-19T23:29:12.432Z,2.53
2022-12-19T23:31:39.790Z,2.20
2022-12-19T23:34:06.136Z,2.08
2022-12-19T23:39:18.780Z,1.60
2022-12-19T23:41:45.196Z,1.90
2022-12-19T23:44:11.789Z,2.33
2022-12-19T23:46:38.195Z,1.33
2022-12-19T23:49:04.711Z,2.30
2022-12-19T23:51:31.473Z,2.10
2022-12-19T23:53:57.818Z,2.10
2022-12-19T23:56:25.759Z,1.73
2022-12-19T23:58:52.465Z,1.73
